Time;durP1;ratioP1;P1;durP2;ratioP2;P2;SDS_P1;SDS_P2;PMS_P1;PMS_P2;Temp;Humidity;BMP_temperature;BMP_pressure;BME280_temperature;BME280_humidity;BME280_pressure;Samples;Min_cycle;Max_cycle;Signal;HPM_P1;HPM_P2
2021/05/12 00:27:34;;;;;;;;;;;;;;;;;;4408473;28;20103;-66
2021/05/12 00:30:00;;;;;;;38.55;16.30;;;;;;;;;;4138433;34;20568;-67
2021/05/12 00:32:26;;;;;;;32.17;16.20;;;;;;;;;;4137752;34;20111;-67
2021/05/12 00:34:52;;;;;;;32.90;16.83;;;;;;;;;;4136962;34;20127;-66
2021/05/12 00:37:18;;;;;;;27.85;17.85;;;;;;;;;;4137097;34;20129;-66
2021/05/12 00:39:43;;;;;;;36.72;19.52;;;;;;;;;;4137012;34;20491;-66
2021/05/12 00:42:10;;;;;;;32.05;17.17;;;;;;;;;;4127677;34;20131;-66
2021/05/12 00:44:35;;;;;;;43.17;18.12;;;;;;;;;;4129384;34;20113;-67
2021/05/12 00:47:04;;;;;;;43.45;18.80;;;;;;;;;;4141227;34;20134;-67
2021/05/12 00:49:31;;;;;;;36.42;18.98;;;;;;;;;;4129153;34;20130;-66
2021/05/12 00:51:57;;;;;;;38.85;19.75;;;;;;;;;;4129578;34;20099;-67
2021/05/12 00:54:22;;;;;;;31.27;17.92;;;;;;;;;;4129060;34;20123;-66
2021/05/12 00:56:48;;;;;;;40.20;17.70;;;;;;;;;;4141168;34;20122;-66
2021/05/12 00:59:14;;;;;;;41.33;18.50;;;;;;;;;;4141341;34;20575;-66
2021/05/12 01:01:40;;;;;;;33.65;17.98;;;;;;;;;;4128674;34;20209;-67
2021/05/12 01:04:07;;;;;;;24.20;17.85;;;;;;;;;;4141094;34;20127;-66
2021/05/12 01:06:35;;;;;;;32.25;18.62;;;;;;;;;;4141258;34;20099;-66
2021/05/12 01:09:02;;;;;;;31.70;16.65;;;;;;;;;;4117871;34;20114;-66
2021/05/12 01:11:28;;;;;;;38.90;18.62;;;;;;;;;;4141004;34;20111;-66
2021/05/12 01:13:54;;;;;;;31.60;18.08;;;;;;;;;;4128502;34;20150;-66
2021/05/12 01:16:21;;;;;;;29.80;17.60;;;;;;;;;;4140945;34;20099;-66
2021/05/12 01:18:47;;;;;;;27.95;17.85;;;;;;;;;;4140992;34;20126;-67
2021/05/12 01:21:13;;;;;;;39.47;17.92;;;;;;;;;;4140821;34;20115;-67
2021/05/12 01:23:41;;;;;;;38.03;19.60;;;;;;;;;;4128574;34;20643;-67
2021/05/12 01:26:08;;;;;;;42.70;18.17;;;;;;;;;;4128938;34;20513;-67
2021/05/12 01:28:36;;;;;;;31.40;18.17;;;;;;;;;;4129141;34;20121;-66
2021/05/12 01:31:11;;;;;;;26.83;17.02;;;;;;;;;;4119348;34;20143;-66
2021/05/12 01:33:37;;;;;;;32.38;18.87;;;;;;;;;;4141208;34;20174;-66
2021/05/12 01:36:04;;;;;;;34.28;18.10;;;;;;;;;;4128284;34;20119;-67
2021/05/12 01:38:30;;;;;;;28.02;17.92;;;;;;;;;;4141673;34;20211;-66
2021/05/12 01:40:56;;;;;;;27.42;18.80;;;;;;;;;;4140882;34;20214;-67
2021/05/12 01:43:22;;;;;;;30.48;19.87;;;;;;;;;;4140935;34;20242;-66
2021/05/12 01:45:48;;;;;;;28.48;18.58;;;;;;;;;;4128266;34;20569;-66
2021/05/12 01:48:14;;;;;;;27.20;18.58;;;;;;;;;;4140432;34;20130;-66
2021/05/12 01:50:41;;;;;;;30.17;18.85;;;;;;;;;;4128027;34;20126;-66
2021/05/12 01:53:07;;;;;;;34.75;18.12;;;;;;;;;;4139716;34;20096;-67
2021/05/12 01:55:33;;;;;;;29.77;18.60;;;;;;;;;;4138952;34;20143;-66
2021/05/12 01:57:59;;;;;;;29.35;18.50;;;;;;;;;;4138350;34;20470;-66
2021/05/12 02:00:35;;;;;;;26.65;18.60;;;;;;;;;;4139942;34;20591;-67
2021/05/12 02:03:07;;;;;;;30.48;18.25;;;;;;;;;;4138608;34;20107;-67
2021/05/12 02:05:33;;;;;;;34.10;19.12;;;;;;;;;;4138282;34;20111;-67
2021/05/12 02:08:00;;;;;;;25.52;18.23;;;;;;;;;;4138002;34;20095;-67
2021/05/12 02:10:27;;;;;;;30.15;19.55;;;;;;;;;;4125797;34;20138;-66
2021/05/12 02:12:53;;;;;;;32.65;18.55;;;;;;;;;;4138259;34;20202;-66
2021/05/12 02:15:19;;;;;;;26.92;18.52;;;;;;;;;;4138834;34;20224;-66
2021/05/12 02:17:45;;;;;;;30.05;18.10;;;;;;;;;;4139053;34;20314;-66
2021/05/12 02:20:12;;;;;;;35.55;19.20;;;;;;;;;;4138032;34;20448;-66
2021/05/12 02:22:38;;;;;;;26.73;18.90;;;;;;;;;;4125920;34;20139;-67
2021/05/12 02:25:05;;;;;;;27.10;18.15;;;;;;;;;;4126115;34;20108;-67
2021/05/12 02:27:31;;;;;;;27.35;19.17;;;;;;;;;;4125275;34;20119;-68
2021/05/12 02:30:01;;;;;;;28.87;19.02;;;;;;;;;;4137652;34;20127;-68
2021/05/12 02:32:30;;;;;;;26.75;18.45;;;;;;;;;;4138343;34;20107;-67
2021/05/12 02:34:56;;;;;;;29.08;18.92;;;;;;;;;;4125629;34;20227;-66
2021/05/12 02:37:23;;;;;;;31.10;18.62;;;;;;;;;;4125987;34;20118;-66
2021/05/12 02:39:49;;;;;;;26.15;18.30;;;;;;;;;;4125461;34;20462;-66
2021/05/12 02:42:15;;;;;;;39.15;19.35;;;;;;;;;;4125222;34;20602;-65
2021/05/12 02:44:41;;;;;;;27.67;18.60;;;;;;;;;;4137668;34;20175;-66
2021/05/12 02:47:07;;;;;;;28.00;19.10;;;;;;;;;;4114040;34;20123;-65
2021/05/12 02:49:33;;;;;;;29.42;17.27;;;;;;;;;;4139747;34;20138;-65
2021/05/12 02:51:59;;;;;;;32.55;18.05;;;;;;;;;;4140187;34;20476;-65
2021/05/12 02:54:25;;;;;;;28.62;18.77;;;;;;;;;;4114741;34;20225;-66
2021/05/12 02:56:51;;;;;;;34.40;19.45;;;;;;;;;;4126135;34;20201;-67
2021/05/12 02:59:17;;;;;;;26.17;17.50;;;;;;;;;;4124630;34;20119;-67
2021/05/12 03:01:44;;;;;;;31.70;18.33;;;;;;;;;;4138675;34;20130;-63
2021/05/12 03:04:10;;;;;;;33.97;17.65;;;;;;;;;;4138032;34;20143;-65
2021/05/12 03:06:35;;;;;;;32.33;17.75;;;;;;;;;;4137751;34;20411;-68
2021/05/12 03:09:02;;;;;;;32.75;18.23;;;;;;;;;;4137778;34;20519;-67
2021/05/12 03:11:28;;;;;;;33.08;18.37;;;;;;;;;;4124910;34;20183;-67
2021/05/12 03:13:54;;;;;;;30.10;16.77;;;;;;;;;;4136894;34;20216;-69
2021/05/12 03:16:19;;;;;;;27.15;16.60;;;;;;;;;;4125743;34;20480;-74
2021/05/12 03:18:45;;;;;;;31.95;17.45;;;;;;;;;;4139101;34;20158;-67
2021/05/12 03:21:11;;;;;;;24.65;16.90;;;;;;;;;;4138715;34;20123;-67
2021/05/12 03:23:37;;;;;;;25.58;17.45;;;;;;;;;;4125607;34;20119;-66
2021/05/12 03:26:04;;;;;;;35.25;18.23;;;;;;;;;;4137722;34;20142;-66
2021/05/12 03:28:30;;;;;;;28.52;18.05;;;;;;;;;;4137870;34;20126;-67
2021/05/12 03:30:56;;;;;;;38.65;18.02;;;;;;;;;;4125193;34;20118;-67
2021/05/12 03:33:22;;;;;;;26.33;17.17;;;;;;;;;;4126263;34;20119;-66
2021/05/12 03:35:48;;;;;;;53.58;17.48;;;;;;;;;;4125206;34;20111;-66
2021/05/12 03:38:14;;;;;;;32.45;17.20;;;;;;;;;;4137987;34;20688;-66
2021/05/12 03:40:40;;;;;;;42.88;17.75;;;;;;;;;;4137732;34;20127;-66
2021/05/12 03:43:06;;;;;;;64.90;17.58;;;;;;;;;;4125141;34;20103;-65
2021/05/12 03:45:32;;;;;;;48.87;18.52;;;;;;;;;;4114063;34;20142;-65
2021/05/12 03:47:58;;;;;;;31.25;15.82;;;;;;;;;;4137099;34;20142;-66
2021/05/12 03:50:25;;;;;;;51.30;16.92;;;;;;;;;;4124730;34;20135;-66
2021/05/12 03:52:51;;;;;;;26.10;14.38;;;;;;;;;;4137059;34;20127;-65
2021/05/12 03:55:17;;;;;;;28.10;15.23;;;;;;;;;;4137064;34;20214;-66
2021/05/12 03:57:43;;;;;;;29.65;15.02;;;;;;;;;;4124549;34;20115;-66
2021/05/12 04:00:10;;;;;;;21.73;15.07;;;;;;;;;;4124257;34;20127;-65
2021/05/12 04:02:36;;;;;;;25.17;14.50;;;;;;;;;;4137113;34;20110;-66
2021/05/12 04:05:03;;;;;;;30.55;16.58;;;;;;;;;;4124375;34;20151;-66
2021/05/12 04:07:29;;;;;;;33.22;15.68;;;;;;;;;;4136880;34;20107;-67
2021/05/12 04:09:55;;;;;;;27.20;15.32;;;;;;;;;;4124286;34;20150;-66
2021/05/12 04:12:21;;;;;;;22.58;14.23;;;;;;;;;;4124648;34;20533;-67
2021/05/12 04:14:47;;;;;;;30.95;15.48;;;;;;;;;;4124384;34;20131;-66
2021/05/12 04:17:13;;;;;;;34.72;16.42;;;;;;;;;;4136022;34;20102;-67
2021/05/12 04:19:39;;;;;;;29.10;15.98;;;;;;;;;;4124266;34;20548;-67
2021/05/12 04:22:05;;;;;;;26.92;16.73;;;;;;;;;;4124003;34;20143;-66
2021/05/12 04:24:31;;;;;;;29.67;16.58;;;;;;;;;;4124298;34;20119;-67
2021/05/12 04:26:57;;;;;;;44.60;15.57;;;;;;;;;;4124091;34;20131;-66
2021/05/12 04:29:23;;;;;;;50.80;15.80;;;;;;;;;;4124330;34;20545;-66
2021/05/12 04:31:50;;;;;;;31.48;13.80;;;;;;;;;;4136633;34;20131;-66
2021/05/12 04:34:15;;;;;;;26.27;14.90;;;;;;;;;;4136534;34;20115;-67
2021/05/12 04:36:41;;;;;;;34.38;14.77;;;;;;;;;;4136501;34;20547;-66
2021/05/12 04:39:07;;;;;;;27.05;15.20;;;;;;;;;;4135266;34;20146;-66
2021/05/12 04:41:33;;;;;;;35.53;14.40;;;;;;;;;;4136467;34;20128;-66
2021/05/12 04:43:59;;;;;;;31.30;14.75;;;;;;;;;;4136480;34;20137;-66
2021/05/12 04:46:25;;;;;;;31.17;14.90;;;;;;;;;;4113744;34;20110;-67
2021/05/12 04:48:58;;;;;;;22.98;15.20;;;;;;;;;;4136261;34;20174;-65
2021/05/12 04:51:29;;;;;;;33.30;13.30;;;;;;;;;;4137876;34;20111;-66
2021/05/12 04:53:55;;;;;;;29.30;12.88;;;;;;;;;;4124423;34;20107;-66
2021/05/12 04:56:22;;;;;;;33.50;13.30;;;;;;;;;;4135346;34;20107;-66
2021/05/12 04:58:47;;;;;;;15.85;10.80;;;;;;;;;;4124182;34;20280;-66
2021/05/12 05:01:13;;;;;;;23.50;12.63;;;;;;;;;;4129004;34;20131;-66
2021/05/12 05:03:43;;;;;;;23.87;12.13;;;;;;;;;;4124602;34;20142;-66
2021/05/12 05:06:09;;;;;;;35.85;12.05;;;;;;;;;;4124464;34;20114;-66
2021/05/12 05:08:35;;;;;;;25.88;10.57;;;;;;;;;;4136773;34;20128;-66
2021/05/12 05:11:01;;;;;;;22.37;9.90;;;;;;;;;;4136538;34;20142;-66
2021/05/12 05:13:27;;;;;;;12.25;7.00;;;;;;;;;;4123829;34;20144;-66
2021/05/12 05:15:53;;;;;;;18.40;6.10;;;;;;;;;;4134748;34;20205;-66
2021/05/12 05:18:19;;;;;;;7.87;4.75;;;;;;;;;;4123676;34;20131;-66
2021/05/12 05:20:45;;;;;;;14.90;6.20;;;;;;;;;;4112827;34;20100;-66
2021/05/12 05:23:11;;;;;;;13.40;5.32;;;;;;;;;;4136505;34;20203;-68
2021/05/12 05:25:37;;;;;;;11.07;5.07;;;;;;;;;;4123815;34;20095;-67
2021/05/12 05:28:03;;;;;;;16.35;5.47;;;;;;;;;;4138253;34;20111;-66
2021/05/12 05:30:29;;;;;;;8.35;3.92;;;;;;;;;;4138635;34;20186;-67
2021/05/12 05:33:02;;;;;;;9.65;4.90;;;;;;;;;;4126210;34;20087;-67
2021/05/12 05:35:28;;;;;;;10.52;4.25;;;;;;;;;;4136739;34;20095;-67
2021/05/12 05:37:54;;;;;;;20.95;5.05;;;;;;;;;;4125879;34;20479;-67
2021/05/12 05:40:20;;;;;;;9.85;4.50;;;;;;;;;;4138376;34;20120;-67
2021/05/12 05:42:46;;;;;;;17.73;4.68;;;;;;;;;;4137223;34;20127;-66
2021/05/12 05:45:12;;;;;;;8.82;4.25;;;;;;;;;;4138387;34;20531;-67
2021/05/12 05:47:38;;;;;;;10.32;4.32;;;;;;;;;;4138143;34;20215;-67
2021/05/12 05:50:04;;;;;;;9.27;4.60;;;;;;;;;;4138551;34;20151;-70
2021/05/12 05:52:30;;;;;;;8.10;4.47;;;;;;;;;;4137944;34;20117;-70
2021/05/12 05:54:56;;;;;;;10.55;4.25;;;;;;;;;;4138189;34;20130;-71
2021/05/12 05:57:22;;;;;;;8.00;4.45;;;;;;;;;;4125931;34;20523;-70
2021/05/12 05:59:48;;;;;;;11.45;4.47;;;;;;;;;;4136609;34;20119;-70
2021/05/12 06:02:14;;;;;;;7.55;4.32;;;;;;;;;;4138050;34;20122;-71
2021/05/12 06:04:40;;;;;;;11.18;5.97;;;;;;;;;;4127751;34;20154;-70
2021/05/12 06:07:07;;;;;;;13.62;4.75;;;;;;;;;;4148544;34;20108;-70
2021/05/12 06:09:33;;;;;;;12.25;4.45;;;;;;;;;;4147418;34;20305;-70
2021/05/12 06:11:59;;;;;;;2.85;2.55;;;;;;;;;;4149635;34;20127;-70
2021/05/12 06:14:25;;;;;;;7.45;4.20;;;;;;;;;;4147155;34;20134;-70
2021/05/12 06:16:51;;;;;;;22.75;4.95;;;;;;;;;;4126849;34;20550;-70
2021/05/12 06:19:17;;;;;;;1.85;1.75;;;;;;;;;;4139343;34;20142;-69
2021/05/12 06:21:43;;;;;;;10.55;4.37;;;;;;;;;;4140204;34;20114;-70
2021/05/12 06:24:10;;;;;;;6.62;3.60;;;;;;;;;;4139763;34;20099;-69
2021/05/12 06:26:37;;;;;;;13.98;5.60;;;;;;;;;;4138029;34;20147;-70
2021/05/12 06:29:03;;;;;;;5.60;3.90;;;;;;;;;;4138409;34;20119;-69
2021/05/12 06:31:29;;;;;;;16.55;4.60;;;;;;;;;;4138355;34;20103;-69
2021/05/12 06:33:57;;;;;;;13.73;4.40;;;;;;;;;;4138027;34;20126;-70
2021/05/12 06:36:23;;;;;;;12.68;4.70;;;;;;;;;;4138152;34;20207;-69
2021/05/12 06:38:48;;;;;;;6.93;4.80;;;;;;;;;;4137424;34;20135;-70
2021/05/12 06:41:14;;;;;;;10.88;5.00;;;;;;;;;;4138118;34;20158;-69
2021/05/12 06:43:40;;;;;;;8.43;4.75;;;;;;;;;;4137831;34;20119;-69
2021/05/12 06:46:06;;;;;;;13.73;4.95;;;;;;;;;;4137733;34;20130;-69
2021/05/12 06:48:32;;;;;;;13.68;4.53;;;;;;;;;;4137741;34;20122;-69
2021/05/12 06:50:58;;;;;;;10.85;5.15;;;;;;;;;;4137685;34;20190;-69
2021/05/12 06:53:28;;;;;;;7.15;4.35;;;;;;;;;;4113945;34;20211;-70
2021/05/12 06:55:55;;;;;;;9.70;5.57;;;;;;;;;;4124905;34;20107;-69
2021/05/12 06:58:21;;;;;;;11.80;5.68;;;;;;;;;;4124910;34;20519;-69
2021/05/12 07:00:49;;;;;;;14.55;5.45;;;;;;;;;;4124842;34;20126;-69
2021/05/12 07:03:15;;;;;;;7.25;4.35;;;;;;;;;;4137386;34;20475;-70
2021/05/12 07:05:40;;;;;;;6.97;4.03;;;;;;;;;;4137209;34;20207;-69
2021/05/12 07:08:06;;;;;;;22.00;4.80;;;;;;;;;;4137489;34;20123;-69
2021/05/12 07:10:32;;;;;;;16.55;5.53;;;;;;;;;;4135795;34;20119;-70
2021/05/12 07:12:58;;;;;;;12.50;5.03;;;;;;;;;;4137337;34;20632;-69
2021/05/12 07:15:24;;;;;;;12.63;5.10;;;;;;;;;;4137280;34;20108;-69
2021/05/12 07:17:50;;;;;;;15.32;5.00;;;;;;;;;;4137199;34;20201;-69
2021/05/12 07:20:16;;;;;;;6.55;3.75;;;;;;;;;;4137451;34;20099;-70
2021/05/12 07:22:42;;;;;;;9.95;5.65;;;;;;;;;;4137377;34;20126;-69
2021/05/12 07:25:09;;;;;;;11.20;6.32;;;;;;;;;;4137375;34;20107;-69
2021/05/12 07:27:35;;;;;;;10.45;5.53;;;;;;;;;;4135695;34;20201;-69
2021/05/12 07:30:02;;;;;;;10.65;5.15;;;;;;;;;;4124836;34;20166;-69
2021/05/12 07:32:28;;;;;;;8.10;5.18;;;;;;;;;;4135800;34;20118;-69
2021/05/12 07:34:54;;;;;;;11.63;5.53;;;;;;;;;;4124713;34;20450;-69
2021/05/12 07:37:20;;;;;;;11.25;5.55;;;;;;;;;;4137186;34;20220;-69
2021/05/12 07:39:46;;;;;;;18.00;7.05;;;;;;;;;;4135889;34;20455;-70
2021/05/12 07:42:13;;;;;;;11.80;6.15;;;;;;;;;;4137326;34;20121;-68
2021/05/12 07:44:39;;;;;;;10.85;6.47;;;;;;;;;;4136002;34;20115;-70
2021/05/12 07:47:05;;;;;;;7.97;4.95;;;;;;;;;;4136961;34;20142;-66
2021/05/12 07:49:31;;;;;;;17.17;4.93;;;;;;;;;;4135713;34;20126;-66
2021/05/12 07:51:57;;;;;;;15.80;6.93;;;;;;;;;;4135467;34;20406;-66
2021/05/12 07:54:23;;;;;;;8.63;5.78;;;;;;;;;;4124428;34;20498;-68
2021/05/12 07:56:50;;;;;;;11.30;6.12;;;;;;;;;;4124788;34;20207;-68
2021/05/12 07:59:16;;;;;;;9.90;4.85;;;;;;;;;;4136947;34;20222;-68
2021/05/12 08:01:44;;;;;;;3.15;2.85;;;;;;;;;;4136799;34;20649;-73
2021/05/12 08:04:10;;;;;;;13.60;6.10;;;;;;;;;;4124954;34;20176;-67
2021/05/12 08:06:36;;;;;;;18.12;6.25;;;;;;;;;;4136855;34;20135;-66
2021/05/12 08:09:03;;;;;;;14.00;6.62;;;;;;;;;;4136901;34;20162;-68
2021/05/12 08:11:29;;;;;;;11.52;6.53;;;;;;;;;;4136661;34;20523;-67
2021/05/12 08:13:55;;;;;;;12.15;6.10;;;;;;;;;;4136782;34;20135;-67
2021/05/12 08:16:21;;;;;;;12.40;5.03;;;;;;;;;;4124559;34;20548;-67
2021/05/12 08:18:46;;;;;;;12.98;5.87;;;;;;;;;;4136781;34;20468;-68
2021/05/12 08:21:12;;;;;;;20.15;5.90;;;;;;;;;;4135162;34;20131;-68
2021/05/12 08:23:38;;;;;;;3.17;2.28;;;;;;;;;;4136837;34;20542;-69
2021/05/12 08:26:04;;;;;;;9.15;4.22;;;;;;;;;;4136655;34;20107;-68
2021/05/12 08:28:30;;;;;;;5.15;3.28;;;;;;;;;;4124115;34;20208;-68
2021/05/12 08:30:57;;;;;;;11.00;6.22;;;;;;;;;;4124453;34;20107;-67
2021/05/12 08:33:23;;;;;;;13.75;5.85;;;;;;;;;;4124492;34;20092;-67
2021/05/12 08:35:49;;;;;;;13.20;6.18;;;;;;;;;;4136755;34;20103;-68
2021/05/12 08:38:19;;;;;;;11.05;4.55;;;;;;;;;;4136566;34;20499;-68
2021/05/12 08:40:46;;;;;;;9.27;4.80;;;;;;;;;;4136563;34;20118;-68
2021/05/12 08:43:13;;;;;;;20.27;6.12;;;;;;;;;;4136366;34;20138;-66
2021/05/12 08:45:42;;;;;;;11.95;4.93;;;;;;;;;;4136527;34;20103;-68
2021/05/12 08:48:10;;;;;;;7.18;5.07;;;;;;;;;;4136471;34;20114;-66
2021/05/12 08:50:37;;;;;;;8.40;4.82;;;;;;;;;;4124342;34;20476;-67
2021/05/12 08:53:03;;;;;;;11.85;6.57;;;;;;;;;;4136230;34;20223;-67
2021/05/12 08:55:30;;;;;;;14.35;6.12;;;;;;;;;;4136178;34;20464;-67
2021/05/12 08:57:56;;;;;;;9.88;5.65;;;;;;;;;;4112990;34;20091;-67
2021/05/12 09:00:22;;;;;;;13.52;6.47;;;;;;;;;;4123622;34;20115;-68
2021/05/12 09:02:48;;;;;;;13.32;5.40;;;;;;;;;;4124775;34;20111;-66
2021/05/12 09:05:15;;;;;;;23.50;7.20;;;;;;;;;;4125896;34;20124;-66
2021/05/12 09:07:41;;;;;;;10.13;6.45;;;;;;;;;;4134510;34;20181;-67
2021/05/12 09:10:07;;;;;;;8.35;4.25;;;;;;;;;;4125092;34;20273;-66
2021/05/12 09:12:55;;;;;;;7.25;5.00;;;;;;;;;;4136791;34;20099;-67
2021/05/12 09:15:22;;;;;;;10.32;6.07;;;;;;;;;;4138318;34;20550;-66
2021/05/12 09:17:55;;;;;;;17.23;7.05;;;;;;;;;;4134424;34;20083;-67
2021/05/12 09:20:24;;;;;;;11.65;5.20;;;;;;;;;;4139690;34;20538;-66
2021/05/12 09:23:03;;;;;;;12.48;6.85;;;;;;;;;;4150568;34;20111;-66
2021/05/12 09:25:33;;;;;;;4.82;2.40;;;;;;;;;;4152117;34;20118;-67
2021/05/12 09:28:17;;;;;;;10.93;4.87;;;;;;;;;;4139915;34;20103;-70
2021/05/12 09:30:47;;;;;;;7.28;2.70;;;;;;;;;;4139748;34;20520;-68
2021/05/12 09:33:28;;;;;;;10.15;5.07;;;;;;;;;;4139458;34;20115;-67
2021/05/12 09:35:54;;;;;;;6.20;3.35;;;;;;;;;;4139452;34;20107;-69
2021/05/12 09:38:22;;;;;;;10.50;5.55;;;;;;;;;;4150838;34;20126;-67
2021/05/12 09:41:05;;;;;;;17.98;6.65;;;;;;;;;;4151794;34;20126;-67
2021/05/12 09:43:34;;;;;;;6.40;4.15;;;;;;;;;;4150399;34;20126;-69
2021/05/12 09:46:24;;;;;;;7.32;5.12;;;;;;;;;;4128837;34;20117;-68
2021/05/12 09:49:06;;;;;;;11.40;4.82;;;;;;;;;;4152074;34;20114;-67
2021/05/12 09:51:35;;;;;;;6.93;3.53;;;;;;;;;;4130265;34;20482;-68
2021/05/12 09:54:03;;;;;;;6.80;4.45;;;;;;;;;;4138318;34;20103;-69
2021/05/12 09:56:50;;;;;;;10.48;4.43;;;;;;;;;;4127529;34;20210;-69
2021/05/12 09:59:17;;;;;;;7.75;5.03;;;;;;;;;;4152082;34;20122;-70
2021/05/12 10:01:44;;;;;;;8.75;4.53;;;;;;;;;;4142841;34;20126;-68
2021/05/12 10:04:27;;;;;;;15.70;6.32;;;;;;;;;;4127884;34;20451;-68
2021/05/12 10:06:57;;;;;;;9.95;4.05;;;;;;;;;;4151193;34;20472;-68
2021/05/12 10:09:25;;;;;;;8.73;4.53;;;;;;;;;;4151018;34;20523;-66
2021/05/12 10:12:08;;;;;;;17.12;3.97;;;;;;;;;;4150176;34;20132;-66
2021/05/12 10:14:35;;;;;;;4.47;2.80;;;;;;;;;;4149457;34;20607;-67
2021/05/12 10:17:02;;;;;;;10.05;4.30;;;;;;;;;;4127772;34;20103;-68
2021/05/12 10:19:28;;;;;;;16.00;4.30;;;;;;;;;;4138831;34;20138;-67
2021/05/12 10:21:54;;;;;;;12.00;4.22;;;;;;;;;;4150988;34;20146;-67
2021/05/12 10:24:21;;;;;;;3.42;2.97;;;;;;;;;;4151111;34;20125;-66
2021/05/12 10:26:47;;;;;;;6.95;2.97;;;;;;;;;;4150930;34;20153;-66
2021/05/12 10:29:14;;;;;;;9.07;3.95;;;;;;;;;;4138269;34;20294;-69
2021/05/12 10:31:40;;;;;;;9.00;3.62;;;;;;;;;;4138459;34;20087;-68
2021/05/12 10:34:06;;;;;;;8.02;3.42;;;;;;;;;;4150968;34;20175;-66
2021/05/12 10:36:32;;;;;;;17.23;4.05;;;;;;;;;;4144884;34;20208;-67
2021/05/12 10:39:02;;;;;;;5.03;1.67;;;;;;;;;;4151013;34;20191;-67
2021/05/12 10:41:46;;;;;;;2.58;2.37;;;;;;;;;;4150850;34;20268;-67
2021/05/12 10:44:16;;;;;;;6.90;3.60;;;;;;;;;;4151226;34;20110;-68
2021/05/12 10:47:01;;;;;;;14.70;3.30;;;;;;;;;;4138524;34;20488;-66
2021/05/12 10:49:27;;;;;;;3.83;1.60;;;;;;;;;;4139482;34;20517;-65
2021/05/12 10:51:53;;;;;;;12.70;2.97;;;;;;;;;;4138505;34;20194;-66
2021/05/12 10:54:38;;;;;;;7.03;2.40;;;;;;;;;;4138359;34;20131;-68
2021/05/12 10:57:05;;;;;;;7.72;2.03;;;;;;;;;;4150911;34;20162;-64
2021/05/12 10:59:31;;;;;;;5.25;2.95;;;;;;;;;;4138423;34;20091;-64
2021/05/12 11:01:57;;;;;;;7.30;3.05;;;;;;;;;;4138492;34;20100;-66
2021/05/12 11:04:24;;;;;;;8.15;2.95;;;;;;;;;;4137756;34;20137;-69
2021/05/12 11:06:50;;;;;;;9.35;3.08;;;;;;;;;;4125205;34;20102;-69
2021/05/12 11:09:17;;;;;;;9.52;3.83;;;;;;;;;;4137416;34;20143;-65
2021/05/12 11:11:43;;;;;;;11.85;2.53;;;;;;;;;;4125022;34;20528;-66
2021/05/12 11:14:19;;;;;;;11.32;3.47;;;;;;;;;;4137342;34;20147;-66
2021/05/12 11:17:06;;;;;;;7.60;2.62;;;;;;;;;;4137298;34;20119;-65
2021/05/12 11:19:37;;;;;;;6.78;3.20;;;;;;;;;;4125377;34;20096;-66
2021/05/12 11:24:52;;;;;;;10.68;3.83;;;;;;;;;;4135744;34;20161;-68
2021/05/12 11:32:35;;;;;;;8.05;4.40;;;;;;;;;;4121378;34;20115;-66
2021/05/12 11:35:03;;;;;;;7.68;4.00;;;;;;;;;;4137394;34;20301;-66
2021/05/12 11:37:31;;;;;;;9.15;3.78;;;;;;;;;;4137565;34;20528;-67
2021/05/12 11:39:58;;;;;;;25.50;4.75;;;;;;;;;;4140719;34;20141;-67
2021/05/12 11:42:30;;;;;;;8.55;3.70;;;;;;;;;;4141524;34;20095;-68
2021/05/12 11:45:20;;;;;;;16.10;4.03;;;;;;;;;;4142373;34;20107;-68
2021/05/12 11:47:58;;;;;;;11.30;4.15;;;;;;;;;;4128716;34;20096;-68
2021/05/12 11:50:26;;;;;;;10.73;4.40;;;;;;;;;;4124355;34;20114;-66
2021/05/12 11:52:52;;;;;;;12.20;5.85;;;;;;;;;;4136803;34;20502;-67
2021/05/12 11:55:21;;;;;;;7.68;4.40;;;;;;;;;;4138360;34;20205;-69
2021/05/12 11:57:47;;;;;;;7.32;4.10;;;;;;;;;;4150883;34;20099;-68
2021/05/12 12:00:17;;;;;;;8.75;3.72;;;;;;;;;;4135609;34;20115;-69
2021/05/12 12:02:59;;;;;;;10.23;4.03;;;;;;;;;;4150487;34;20110;-67
2021/05/12 12:05:34;;;;;;;10.30;4.12;;;;;;;;;;4138128;34;20126;-69
2021/05/12 12:08:13;;;;;;;11.70;4.07;;;;;;;;;;4150656;34;20611;-68
2021/05/12 12:10:39;;;;;;;8.75;4.30;;;;;;;;;;4138100;34;20110;-69
2021/05/12 12:13:09;;;;;;;10.48;3.67;;;;;;;;;;4150405;34;20174;-68
2021/05/12 12:16:01;;;;;;;10.50;4.28;;;;;;;;;;4149056;34;20195;-67
2021/05/12 12:18:34;;;;;;;13.43;4.32;;;;;;;;;;4147848;34;20527;-69
2021/05/12 12:21:01;;;;;;;13.00;4.62;;;;;;;;;;4150027;34;20107;-68
2021/05/12 12:23:28;;;;;;;20.42;5.75;;;;;;;;;;4126550;34;20128;-67
2021/05/12 12:26:15;;;;;;;13.60;6.70;;;;;;;;;;4137943;34;20116;-67
2021/05/12 12:28:48;;;;;;;14.00;6.18;;;;;;;;;;4137025;34;20210;-69
2021/05/12 12:31:17;;;;;;;10.25;5.80;;;;;;;;;;4136563;34;20142;-68
2021/05/12 12:33:43;;;;;;;14.60;6.15;;;;;;;;;;4113384;34;20185;-69
2021/05/12 12:36:11;;;;;;;11.95;6.30;;;;;;;;;;4123951;34;20123;-66
2021/05/12 12:38:49;;;;;;;9.88;5.10;;;;;;;;;;4135019;34;20130;-66
2021/05/12 12:41:16;;;;;;;16.35;4.97;;;;;;;;;;4124412;34;20206;-66
2021/05/12 12:43:42;;;;;;;9.98;5.57;;;;;;;;;;4124382;34;20111;-65
2021/05/12 12:46:08;;;;;;;14.07;5.25;;;;;;;;;;4136756;34;20122;-65
2021/05/12 12:48:34;;;;;;;18.37;4.50;;;;;;;;;;4136481;34;20123;-66
2021/05/12 12:51:00;;;;;;;4.80;3.85;;;;;;;;;;4136559;34;20197;-69
2021/05/12 12:53:30;;;;;;;11.85;4.30;;;;;;;;;;4113147;34;20516;-64
2021/05/12 12:56:06;;;;;;;16.15;3.80;;;;;;;;;;4136475;34;20111;-66
2021/05/12 12:58:32;;;;;;;8.93;4.18;;;;;;;;;;4135044;34;20100;-68
2021/05/12 13:00:58;;;;;;;12.63;4.65;;;;;;;;;;4129318;34;20127;-67
2021/05/12 13:03:25;;;;;;;16.15;6.28;;;;;;;;;;4121604;34;20562;-68
2021/05/12 13:05:53;;;;;;;16.55;5.80;;;;;;;;;;4122950;34;20108;-71
2021/05/12 13:08:30;;;;;;;11.68;5.45;;;;;;;;;;4123185;34;20118;-68
2021/05/12 13:11:08;;;;;;;7.75;4.78;;;;;;;;;;4110816;34;20103;-67
2021/05/12 13:16:26;;;;;;;11.07;4.10;;;;;;;;;;4110572;34;20138;-67
2021/05/12 13:18:53;;;;;;;11.23;4.22;;;;;;;;;;4110941;34;20566;-68
2021/05/12 13:21:19;;;;;;;13.73;6.07;;;;;;;;;;4099357;34;20126;-69
2021/05/12 13:24:01;;;;;;;12.77;5.22;;;;;;;;;;4122864;34;20628;-67
2021/05/12 13:26:35;;;;;;;6.15;4.03;;;;;;;;;;4112185;34;20123;-71
2021/05/12 13:29:05;;;;;;;7.60;4.07;;;;;;;;;;4124344;34;20129;-70
2021/05/12 13:31:32;;;;;;;12.45;4.87;;;;;;;;;;4123731;34;20134;-65
2021/05/12 13:33:58;;;;;;;8.80;4.32;;;;;;;;;;4134573;34;20157;-68
2021/05/12 13:36:24;;;;;;;11.35;4.40;;;;;;;;;;4123486;34;20128;-70
2021/05/12 13:38:50;;;;;;;6.95;4.03;;;;;;;;;;4123608;34;20119;-68
2021/05/12 13:41:16;;;;;;;6.90;4.20;;;;;;;;;;4135959;34;20138;-68
2021/05/12 13:43:42;;;;;;;7.18;4.03;;;;;;;;;;4136163;34;20162;-68
2021/05/12 13:46:09;;;;;;;10.82;4.25;;;;;;;;;;4134809;34;20123;-68
2021/05/12 13:48:35;;;;;;;17.92;5.50;;;;;;;;;;4124346;34;20120;-69
2021/05/12 13:51:01;;;;;;;11.40;4.20;;;;;;;;;;4137397;34;20119;-67
2021/05/12 13:58:49;;;;;;;9.02;4.75;;;;;;;;;;4137498;34;20126;-68
2021/05/12 14:04:02;;;;;;;11.60;3.55;;;;;;;;;;4137005;34;20543;-68
2021/05/12 14:09:00;;;;;;;14.85;3.85;;;;;;;;;;4136835;34;20130;-67
2021/05/12 14:11:27;;;;;;;7.03;3.83;;;;;;;;;;4134875;34;20138;-67
2021/05/12 14:14:01;;;;;;;9.80;4.32;;;;;;;;;;4148639;34;20095;-67
2021/05/12 14:16:35;;;;;;;8.90;4.97;;;;;;;;;;4149702;34;20187;-75
2021/05/12 14:19:04;;;;;;;23.15;4.07;;;;;;;;;;4136187;34;20108;-68
2021/05/12 14:21:31;;;;;;;7.32;3.00;;;;;;;;;;4124797;34;20111;-69
2021/05/12 14:23:57;;;;;;;10.63;3.85;;;;;;;;;;4136854;34;20137;-67
2021/05/12 14:26:24;;;;;;;12.57;4.40;;;;;;;;;;4138517;34;20515;-67
2021/05/12 14:28:57;;;;;;;8.38;4.43;;;;;;;;;;4127620;34;20212;-67
2021/05/12 14:31:24;;;;;;;6.68;3.78;;;;;;;;;;4127855;34;20134;-70
2021/05/12 14:33:50;;;;;;;5.37;3.33;;;;;;;;;;4149519;34;20504;-70
2021/05/12 14:36:17;;;;;;;4.75;3.60;;;;;;;;;;4151286;34;20099;-71
2021/05/12 14:38:43;;;;;;;3.42;2.37;;;;;;;;;;4138661;34;20122;-70
2021/05/12 14:41:10;;;;;;;8.85;4.22;;;;;;;;;;4138575;34;20519;-66
2021/05/12 14:43:38;;;;;;;8.52;3.78;;;;;;;;;;4151144;34;20101;-69
2021/05/12 14:46:04;;;;;;;6.10;4.28;;;;;;;;;;4138682;34;20131;-70
2021/05/12 14:48:35;;;;;;;6.72;3.12;;;;;;;;;;4150988;34;20154;-69
2021/05/12 14:51:04;;;;;;;12.00;3.35;;;;;;;;;;4139294;34;20135;-70
2021/05/12 14:53:35;;;;;;;7.32;3.75;;;;;;;;;;4129854;34;20115;-70
2021/05/12 15:06:31;;;;;;;7.60;3.55;;;;;;;;;;4125061;34;20120;-68
2021/05/12 15:08:57;;;;;;;8.85;3.58;;;;;;;;;;4126804;34;20149;-67
2021/05/12 15:11:24;;;;;;;5.32;3.15;;;;;;;;;;4113629;34;20205;-68
2021/05/12 15:13:50;;;;;;;5.15;3.28;;;;;;;;;;4137335;34;20216;-67
2021/05/12 15:16:17;;;;;;;11.07;3.47;;;;;;;;;;4137366;34;20111;-68
2021/05/12 15:18:43;;;;;;;6.47;4.65;;;;;;;;;;4137478;34;20099;-67
2021/05/12 15:21:09;;;;;;;12.48;5.30;;;;;;;;;;4124908;34;20197;-66
2021/05/12 15:23:35;;;;;;;7.85;4.78;;;;;;;;;;4137461;34;20634;-66
2021/05/12 15:26:01;;;;;;;9.20;5.40;;;;;;;;;;4137450;34;20142;-66
2021/05/12 15:28:28;;;;;;;9.27;4.90;;;;;;;;;;4121335;34;20171;-66
2021/05/12 15:30:54;;;;;;;7.12;3.85;;;;;;;;;;4136403;34;20136;-70
2021/05/12 15:33:20;;;;;;;7.50;4.05;;;;;;;;;;4145351;34;20110;-67